Etusivu
METAR-TAF:

METAR-TAF

Lentoasemat :

Schaffen

Diest, Belgia

Leveyspiiri: 51-00N, Pituuspiiri: 005-04E, korkeus merenpinnasta: 30 m

Tämänhetkinen sää

Tämä raportti tehtiin 29 minuuttia sitten, kello 17.55 UTC
Tuuli 3 kn koillisesta
Lämpötila 0°C
Kosteus 93%
Ilmanpaine 1024 hPa
Näkyvyys: 4400 m
utua

METAR: EBDT 141755Z AUTO 05003KT 4400 BR OVC041/// 00/M01 Q1024 GRN

Aika: 19:24 (18:24 UTC)

Sääennuste

Tämä raportti tehtiin 26 tuntia ja 43 minuuttia sitten, kello 15.41 UTC
Ennuste voimassa 13. päivästä klo 19 UTC - 14. päivään klo 07 UTC
Tuuli 7 kn idästä/koillisesta
Näkyvyys 10 km tai enemmän
Muutamia pilviä 2000 ft:n korkeudessa
Ajoittain
14. päivästä klo 04 UTC - 14. päivään klo 07 UTC
Tuuli 8 kn idästä/koillisesta
Näkyvyys: 3000 m
Hajonneita pilviä 300 ft:n korkeudessa
utua

TAF: EBDT 131541Z 1319/1407 07007KT 9999 FEW020 TEMPO 1404/1407 07008KT 3000 BR BKN003

Säähavainnot ja -ennusteet yli 4000 lentoasemalta (METAR- ja TAF-raportit).

Käytössä olevat sääasemat on merkitty karttaan keltaisilla ja punaisilla pisteillä.

Aseta hiiri pisteen päälle nähdäksesi sääaseman nimen.

Klikkaa sitten nähdäksesi säähavainnot ja -ennusteet.

Kartan vaihtaminen: klikkaa mustalla rastilla varustettuja vihreitä pisteitä, niin voit zoomata sisään; viivalla varustettua vihreää pistettä, niin voit zoomata ulos tai vihreitä nuolia, niin pääset viereisille kartoille.


METAR-TAF: